Time;durP1;ratioP1;P1;durP2;ratioP2;P2;SDS_P1;SDS_P2;PMS_P1;PMS_P2;Temp;Humidity;BMP_temperature;BMP_pressure;BME280_temperature;BME280_humidity;BME280_pressure;Samples;Min_cycle;Max_cycle;Signal;HPM_P1;HPM_P2
2024/01/25 00:01:30;;;;;;;16.80;10.80;;;;;;;-7.13;100.00;140549.30;106561;1278;22643;-65
2024/01/25 00:04:17;;;;;;;17.00;10.30;;;;;;;-7.11;100.00;140554.50;106899;1278;24251;-64
2024/01/25 00:07:03;;;;;;;14.00;9.80;;;;;;;-7.09;100.00;140559.19;106843;1268;25243;-64
2024/01/25 00:09:50;;;;;;;15.80;10.10;;;;;;;-7.06;100.00;140564.63;106689;1278;23899;-65
2024/01/25 00:12:37;;;;;;;17.80;10.60;;;;;;;-7.03;100.00;140572.78;106764;1270;22539;-64
2024/01/25 00:15:23;;;;;;;19.10;12.20;;;;;;;-7.00;100.00;140579.17;106786;1276;25545;-66
2024/01/25 00:18:10;;;;;;;15.30;10.20;;;;;;;-7.03;100.00;140573.00;106846;1272;22525;-65
2024/01/25 00:20:56;;;;;;;17.60;11.40;;;;;;;-7.03;100.00;140573.50;106731;1262;22580;-65
2024/01/25 00:23:42;;;;;;;18.00;11.70;;;;;;;-7.04;100.00;140572.27;106672;1268;22523;-66
2024/01/25 00:26:28;;;;;;;16.30;10.50;;;;;;;-7.00;100.00;140579.42;106751;1260;22594;-63
2024/01/25 00:29:15;;;;;;;20.40;12.20;;;;;;;-6.93;100.00;140595.73;106710;1276;22526;-67
2024/01/25 00:32:02;;;;;;;17.10;10.30;;;;;;;-6.89;100.00;140607.34;106707;1277;24454;-66
2024/01/25 00:34:50;;;;;;;15.50;10.80;;;;;;;-6.86;100.00;140613.28;106774;1275;25363;-66
2024/01/25 00:37:37;;;;;;;14.00;9.80;;;;;;;-6.83;100.00;140622.92;106671;1278;22533;-64
2024/01/25 00:40:24;;;;;;;16.30;10.00;;;;;;;-6.80;100.00;140628.59;106732;1275;25340;-67
2024/01/25 00:43:11;;;;;;;19.40;10.70;;;;;;;-6.77;100.00;140636.00;106759;1278;25392;-65
2024/01/25 00:45:58;;;;;;;20.80;10.70;;;;;;;-6.74;100.00;140642.17;106787;1271;22511;-65
2024/01/25 00:48:45;;;;;;;18.50;11.10;;;;;;;-6.74;100.00;140641.92;106863;1278;25409;-66
2024/01/25 00:51:32;;;;;;;15.00;10.40;;;;;;;-6.72;100.00;140646.13;106891;1275;25379;-65
2024/01/25 00:54:19;;;;;;;14.10;9.60;;;;;;;-6.72;100.00;140645.89;106672;1262;22549;-66
2024/01/25 00:57:06;;;;;;;15.80;10.00;;;;;;;-6.68;100.00;140657.48;106788;1275;22648;-65
2024/01/25 00:59:52;;;;;;;17.20;10.20;;;;;;;-6.63;100.00;140670.33;106813;1278;26814;-61
2024/01/25 01:02:42;;;;;;;16.00;10.20;;;;;;;-6.61;100.00;140675.03;106722;1278;22647;-63
2024/01/25 01:05:29;;;;;;;14.70;9.50;;;;;;;-6.58;100.00;140682.92;106772;1275;25370;-61
2024/01/25 01:08:16;;;;;;;13.30;9.30;;;;;;;-6.56;100.00;140686.39;106745;1276;24231;-64
2024/01/25 01:11:04;;;;;;;16.00;9.50;;;;;;;-6.52;100.00;140697.03;106723;1276;25365;-63
2024/01/25 01:13:50;;;;;;;15.20;9.10;;;;;;;-6.47;100.00;140707.91;106757;1276;22536;-62
2024/01/25 01:16:37;;;;;;;17.20;10.00;;;;;;;-6.47;100.00;140709.13;106782;1276;25363;-61
2024/01/25 01:19:24;;;;;;;17.40;9.50;;;;;;;-6.46;100.00;140711.61;106803;1272;24532;-63
2024/01/25 01:22:10;;;;;;;14.60;8.40;;;;;;;-6.45;100.00;140713.33;106777;1259;22523;-63
2024/01/25 01:24:57;;;;;;;13.50;8.60;;;;;;;-6.43;100.00;140717.78;106809;1263;22527;-64
2024/01/25 01:27:44;;;;;;;13.80;8.80;;;;;;;-6.38;100.00;140729.39;106918;1272;22532;-65
2024/01/25 01:30:30;;;;;;;14.10;8.80;;;;;;;-6.34;100.00;140740.77;106900;1269;22520;-64
2024/01/25 01:33:16;;;;;;;12.30;7.90;;;;;;;-6.31;100.00;140746.20;106812;1276;24205;-64
2024/01/25 01:36:02;;;;;;;14.00;8.40;;;;;;;-6.31;100.00;140745.95;106980;1268;25362;-64
2024/01/25 01:38:49;;;;;;;13.60;7.90;;;;;;;-6.29;100.00;140751.63;106815;1267;22529;-64
2024/01/25 01:41:36;;;;;;;14.20;8.40;;;;;;;-6.31;100.00;140746.91;106962;1275;25373;-63
2024/01/25 01:44:22;;;;;;;16.60;8.70;;;;;;;-6.29;100.00;140750.14;106815;1269;22539;-61
2024/01/25 01:47:09;;;;;;;15.20;8.60;;;;;;;-6.30;100.00;140748.41;106890;1264;22526;-61
2024/01/25 01:49:55;;;;;;;14.20;8.20;;;;;;;-6.30;100.00;140747.92;106743;1276;24281;-63
2024/01/25 01:52:42;;;;;;;12.40;7.50;;;;;;;-6.30;100.00;140749.16;106701;1276;22549;-64
2024/01/25 01:55:30;;;;;;;12.70;8.60;;;;;;;-6.29;100.00;140751.61;106725;1276;24918;-64
2024/01/25 01:58:19;;;;;;;17.60;8.60;;;;;;;-6.27;100.00;140756.06;106722;1276;22530;-65
2024/01/25 02:01:05;;;;;;;15.00;8.50;;;;;;;-6.25;100.00;140760.03;106738;1276;25011;-65
2024/01/25 02:03:52;;;;;;;12.40;8.50;;;;;;;-6.26;100.00;140758.05;106962;1274;25356;-62
2024/01/25 02:06:42;;;;;;;12.20;7.90;;;;;;;-6.23;100.00;140766.20;106844;1275;22573;-65
2024/01/25 02:09:29;;;;;;;12.10;8.00;;;;;;;-6.18;100.00;140779.30;106784;1275;25373;-65
2024/01/25 02:12:19;;;;;;;15.90;8.80;;;;;;;-6.13;100.00;140789.42;106755;1275;25345;-64
2024/01/25 02:15:06;;;;;;;12.50;7.60;;;;;;;-6.12;100.00;140792.91;106730;1275;25246;-63
2024/01/25 02:17:53;;;;;;;14.60;7.90;;;;;;;-6.11;100.00;140795.16;106759;1275;22557;-65
2024/01/25 02:20:39;;;;;;;14.80;7.20;;;;;;;-6.08;100.00;140802.30;106772;1274;24234;-62
2024/01/25 02:23:26;;;;;;;13.30;8.30;;;;;;;-6.04;100.00;140811.20;106771;1275;22530;-62
2024/01/25 02:26:13;;;;;;;11.40;6.90;;;;;;;-6.05;100.00;140809.95;106753;1275;24294;-63
2024/01/25 02:29:00;;;;;;;13.50;7.40;;;;;;;-6.04;100.00;140812.19;106767;1275;25246;-65
2024/01/25 02:31:46;;;;;;;12.70;7.80;;;;;;;-6.04;100.00;140811.45;106847;1275;22522;-62
2024/01/25 02:34:32;;;;;;;10.90;6.80;;;;;;;-6.03;100.00;140815.41;106972;1274;22523;-62
2024/01/25 02:37:19;;;;;;;13.10;7.00;;;;;;;-6.01;100.00;140820.58;106873;1274;24826;-61
2024/01/25 02:40:06;;;;;;;11.40;7.00;;;;;;;-5.98;100.00;140827.28;106926;1269;22636;-63
2024/01/25 02:42:52;;;;;;;13.50;6.90;;;;;;;-5.98;100.00;140826.53;107023;1274;25220;-63
2024/01/25 02:45:39;;;;;;;12.30;7.90;;;;;;;-5.97;100.00;140828.98;106967;1273;22799;-64
2024/01/25 02:48:25;;;;;;;9.70;6.70;;;;;;;-5.94;100.00;140836.41;107078;1273;22525;-64
2024/01/25 02:51:12;;;;;;;12.50;7.70;;;;;;;-5.90;100.00;140846.00;106871;1274;22519;-65
2024/01/25 02:53:58;;;;;;;13.60;7.50;;;;;;;-5.86;100.00;140853.92;106994;1274;22562;-64
2024/01/25 02:56:45;;;;;;;9.50;6.30;;;;;;;-5.83;100.00;140863.31;106841;1274;25277;-64
2024/01/25 02:59:31;;;;;;;12.30;7.50;;;;;;;-5.82;100.00;140864.31;106814;1274;22529;-65
2024/01/25 03:02:19;;;;;;;13.70;7.00;;;;;;;-5.83;100.00;140861.09;106880;1274;22532;-65
2024/01/25 03:05:05;;;;;;;12.30;7.00;;;;;;;-5.84;100.00;140860.59;106843;1274;22569;-66
2024/01/25 03:07:51;;;;;;;12.40;7.30;;;;;;;-5.83;100.00;140861.84;106941;1260;25304;-62
2024/01/25 03:10:38;;;;;;;11.90;6.90;;;;;;;-5.80;100.00;140870.73;106954;1274;22645;-64
2024/01/25 03:13:24;;;;;;;13.10;6.90;;;;;;;-5.77;100.00;140878.16;106948;1274;22527;-65
2024/01/25 03:16:11;;;;;;;10.70;6.70;;;;;;;-5.79;100.00;140873.45;106935;1274;22510;-63
2024/01/25 03:18:57;;;;;;;13.40;7.20;;;;;;;-5.81;100.00;140868.50;106782;1274;22525;-61
2024/01/25 03:21:43;;;;;;;11.60;6.80;;;;;;;-5.82;100.00;140864.80;106915;1274;25168;-65
2024/01/25 03:24:30;;;;;;;11.20;6.60;;;;;;;-5.78;100.00;140873.72;106971;1274;22517;-66
2024/01/25 03:27:17;;;;;;;13.30;7.20;;;;;;;-5.77;100.00;140877.91;107081;1265;22545;-65
2024/01/25 03:30:05;;;;;;;14.00;7.50;;;;;;;-5.74;100.00;140884.08;106971;1261;23861;-62
2024/01/25 03:32:51;;;;;;;11.20;6.50;;;;;;;-5.73;100.00;140886.30;106937;1275;22529;-67
2024/01/25 03:35:38;;;;;;;14.50;6.70;;;;;;;-5.71;100.00;140891.98;106920;1274;25288;-62
2024/01/25 03:38:24;;;;;;;13.10;7.10;;;;;;;-5.72;100.00;140889.28;107182;1274;22551;-62
2024/01/25 03:41:11;;;;;;;9.90;6.30;;;;;;;-5.72;100.00;140889.53;107376;1262;22523;-64
2024/01/25 03:43:57;;;;;;;13.80;7.20;;;;;;;-5.67;100.00;140902.39;107115;1268;25362;-62
2024/01/25 03:46:44;;;;;;;10.60;6.50;;;;;;;-5.64;100.00;140909.08;107536;1264;22561;-66
2024/01/25 03:49:30;;;;;;;13.00;6.20;;;;;;;-5.64;100.00;140909.55;107348;1269;22874;-62
2024/01/25 03:52:17;;;;;;;14.60;6.90;;;;;;;-5.60;100.00;140918.45;107596;1265;22535;-62
2024/01/25 03:55:04;;;;;;;13.50;6.60;;;;;;;-5.60;100.00;140917.47;107361;1273;22529;-64
2024/01/25 03:57:50;;;;;;;12.20;7.00;;;;;;;-5.59;100.00;140921.92;107275;1260;22573;-63
2024/01/25 04:00:37;;;;;;;11.20;6.30;;;;;;;-5.57;100.00;140926.13;107298;1263;23890;-65
2024/01/25 18:14:37;;;;;;;6.10;3.30;;;;;;;-5.26;100.00;141000.56;103756;1304;545022;-65
2024/01/25 18:17:24;;;;;;;5.50;3.10;;;;;;;-5.25;100.00;141004.05;106432;1278;24244;-63
2024/01/25 18:20:12;;;;;;;6.10;3.30;;;;;;;-5.23;100.00;141008.47;106608;1271;22562;-63
2024/01/25 18:22:58;;;;;;;6.20;3.50;;;;;;;-5.26;100.00;141001.33;106372;1276;25530;-63
2024/01/25 18:25:45;;;;;;;6.20;3.70;;;;;;;-5.25;100.00;141004.28;106505;1278;22572;-60
2024/01/25 18:28:31;;;;;;;7.30;4.50;;;;;;;-5.21;100.00;141012.45;106406;1278;132859;-65
2024/01/25 18:31:18;;;;;;;8.30;4.50;;;;;;;-5.18;100.00;141019.13;106425;1275;22536;-64
2024/01/25 18:34:06;;;;;;;6.40;3.70;;;;;;;-5.19;100.00;141017.66;106510;1277;25306;-63
2024/01/25 18:36:53;;;;;;;7.90;4.00;;;;;;;-5.20;100.00;141013.92;106741;1266;24296;-63
2024/01/25 18:39:40;;;;;;;7.30;3.80;;;;;;;-5.17;100.00;141021.11;106516;1266;22528;-63
2024/01/25 18:42:27;;;;;;;7.80;4.50;;;;;;;-5.12;100.00;141033.22;106922;1272;22529;-64
2024/01/25 18:45:13;;;;;;;5.80;4.10;;;;;;;-5.07;100.00;141046.34;106767;1263;22548;-64
2024/01/25 18:48:01;;;;;;;9.10;4.80;;;;;;;-5.05;100.00;141050.80;106586;1268;25301;-64
2024/01/25 18:50:48;;;;;;;7.90;4.70;;;;;;;-5.03;100.00;141056.00;106892;1269;25257;-60
2024/01/25 18:53:37;;;;;;;8.60;5.40;;;;;;;-5.05;100.00;141051.78;107363;1266;22518;-60
2024/01/25 18:56:24;;;;;;;7.90;4.70;;;;;;;-5.03;100.00;141055.75;106553;1268;22550;-66
2024/01/25 18:59:13;;;;;;;10.10;5.70;;;;;;;-5.00;100.00;141062.66;106931;1272;25341;-64
2024/01/25 19:02:01;;;;;;;9.60;5.40;;;;;;;-5.02;100.00;141059.94;106782;1263;22531;-65
2024/01/25 19:04:48;;;;;;;8.20;4.80;;;;;;;-5.06;100.00;141048.83;107050;1269;23104;-59
2024/01/25 19:07:38;;;;;;;8.00;4.60;;;;;;;-5.13;100.00;141031.23;106950;1266;22534;-65
2024/01/25 19:10:25;;;;;;;7.50;4.50;;;;;;;-5.20;100.00;141014.44;106787;1267;22529;-62
2024/01/25 19:13:14;;;;;;;8.10;3.90;;;;;;;-5.28;100.00;140995.84;106692;1268;24236;-63
2024/01/25 19:16:00;;;;;;;6.90;3.90;;;;;;;-5.30;100.00;140991.91;106745;1263;22536;-65
2024/01/25 19:18:47;;;;;;;6.30;4.00;;;;;;;-5.26;100.00;140999.83;106691;1262;25359;-60
2024/01/25 19:21:34;;;;;;;6.50;4.10;;;;;;;-5.24;100.00;141005.28;106764;1262;22529;-65
2024/01/25 19:24:22;;;;;;;6.40;4.00;;;;;;;-5.25;100.00;141002.80;106894;1264;22529;-63
2024/01/25 19:27:09;;;;;;;7.10;3.70;;;;;;;-5.27;100.00;140998.59;106735;1262;22514;-67
2024/01/25 19:29:59;;;;;;;7.90;4.70;;;;;;;-5.40;100.00;140967.91;106944;1263;22977;-64
2024/01/25 19:32:47;;;;;;;5.90;3.60;;;;;;;-5.52;100.00;140937.25;106743;1260;24219;-60
2024/01/25 19:35:34;;;;;;;9.30;4.60;;;;;;;-5.61;100.00;140915.97;106775;1269;25293;-61
2024/01/25 19:38:21;;;;;;;7.00;3.90;;;;;;;-5.65;100.00;140907.08;107133;1263;24363;-64
2024/01/25 19:41:11;;;;;;;7.30;3.10;;;;;;;-5.71;100.00;140891.48;106961;1276;24387;-62
2024/01/25 19:43:57;;;;;;;6.90;4.30;;;;;;;-5.79;100.00;140873.20;106844;1259;25352;-64
2024/01/25 19:46:44;;;;;;;9.00;4.00;;;;;;;-5.79;100.00;140871.72;106646;1262;22536;-66
2024/01/25 19:49:30;;;;;;;6.60;3.80;;;;;;;-5.73;100.00;140887.55;106906;1266;22529;-64
2024/01/25 19:52:17;;;;;;;8.90;4.60;;;;;;;-5.65;100.00;140905.34;106558;1276;24285;-64
2024/01/25 19:55:06;;;;;;;7.10;4.10;;;;;;;-5.62;100.00;140914.28;106562;1276;22523;-64
2024/01/25 19:57:53;;;;;;;7.00;3.90;;;;;;;-5.67;100.00;140901.39;106556;1276;22523;-66
2024/01/25 20:00:41;;;;;;;8.20;4.00;;;;;;;-5.68;100.00;140899.66;106609;1276;25230;-63
2024/01/25 20:03:30;;;;;;;6.50;4.10;;;;;;;-5.61;100.00;140915.73;106625;1276;22526;-63
2024/01/25 20:06:17;;;;;;;9.00;4.00;;;;;;;-5.53;100.00;140935.52;106575;1276;24236;-65
2024/01/25 20:09:07;;;;;;;8.00;3.70;;;;;;;-5.55;100.00;140931.30;106602;1276;22533;-63
2024/01/25 20:11:54;;;;;;;6.40;3.50;;;;;;;-5.52;100.00;140939.00;106486;1270;22533;-66
2024/01/25 20:14:41;;;;;;;6.80;3.60;;;;;;;-5.47;100.00;140950.36;106543;1278;24264;-58
2024/01/25 20:17:32;;;;;;;6.50;3.90;;;;;;;-5.47;100.00;140950.86;106627;1277;24244;-62
2024/01/25 20:20:20;;;;;;;5.90;3.40;;;;;;;-5.46;100.00;140954.05;106539;1277;22643;-65
2024/01/25 20:23:19;;;;;;;6.80;3.40;;;;;;;-5.50;100.00;140943.66;106522;1277;25341;-67
2024/01/25 20:26:05;;;;;;;6.50;3.30;;;;;;;-5.48;100.00;140949.13;106527;1278;22538;-61
2024/01/25 20:28:52;;;;;;;6.30;3.20;;;;;;;-5.50;100.00;140943.66;107140;1276;25368;-66
2024/01/25 20:31:38;;;;;;;5.80;3.20;;;;;;;-5.54;100.00;140934.28;106937;1259;22527;-62
2024/01/25 20:34:25;;;;;;;5.20;2.70;;;;;;;-5.64;100.00;140908.55;107176;1276;22539;-69
2024/01/25 20:37:11;;;;;;;5.60;3.40;;;;;;;-5.69;100.00;140896.94;107091;1256;22528;-62
2024/01/25 20:39:57;;;;;;;6.40;3.20;;;;;;;-5.69;100.00;140896.22;107138;1275;23917;-63
2024/01/25 20:42:44;;;;;;;7.60;3.60;;;;;;;-5.66;100.00;140903.13;106806;1262;22568;-62
2024/01/25 20:45:31;;;;;;;5.90;3.40;;;;;;;-5.62;100.00;140912.78;106824;1262;23277;-60
2024/01/25 20:48:18;;;;;;;5.30;2.90;;;;;;;-5.61;100.00;140915.72;106806;1266;24387;-64
2024/01/25 20:51:04;;;;;;;7.60;2.90;;;;;;;-5.58;100.00;140922.41;107253;1269;22534;-62
2024/01/25 20:53:51;;;;;;;6.30;3.20;;;;;;;-5.59;100.00;140921.44;106997;1276;23908;-63
2024/01/25 20:56:49;;;;;;;5.70;2.90;;;;;;;-5.57;100.00;140924.88;107378;1254;22993;-64
2024/01/25 20:59:37;;;;;;;5.10;2.70;;;;;;;-5.54;100.00;140932.31;107235;1269;24321;-64
2024/01/25 21:02:24;;;;;;;5.30;2.70;;;;;;;-5.62;100.00;140914.00;107400;1266;25373;-64
2024/01/25 21:05:11;;;;;;;5.60;3.50;;;;;;;-5.74;100.00;140885.83;107212;1269;22539;-61
2024/01/25 21:07:58;;;;;;;5.80;3.30;;;;;;;-5.82;100.00;140865.78;107268;1267;22523;-62
2024/01/25 21:10:45;;;;;;;7.00;4.50;;;;;;;-5.88;100.00;140851.44;107628;1259;25993;-62
2024/01/25 21:13:31;;;;;;;6.30;3.80;;;;;;;-5.96;100.00;140832.20;107473;1260;24278;-63
2024/01/25 21:16:18;;;;;;;8.80;4.40;;;;;;;-6.01;100.00;140819.34;108005;1256;24480;-63
2024/01/25 21:19:09;;;;;;;6.10;3.20;;;;;;;-6.06;100.00;140806.25;107720;1260;25330;-63
2024/01/25 21:21:55;;;;;;;5.80;3.20;;;;;;;-6.08;100.00;140802.06;108297;1262;22530;-67
2024/01/25 21:24:42;;;;;;;5.30;3.10;;;;;;;-6.18;100.00;140779.30;107430;1272;22527;-57
2024/01/25 21:27:29;;;;;;;6.80;3.70;;;;;;;-6.20;100.00;140773.14;107678;1260;24083;-60
2024/01/25 21:30:15;;;;;;;6.50;3.40;;;;;;;-6.19;100.00;140777.09;107551;1263;25261;-64
2024/01/25 21:33:02;;;;;;;5.80;3.40;;;;;;;-6.13;100.00;140790.67;107372;1260;23748;-63
2024/01/25 21:35:49;;;;;;;5.20;3.30;;;;;;;-6.16;100.00;140782.53;107622;1264;23985;-60
2024/01/25 21:38:35;;;;;;;5.00;2.90;;;;;;;-6.18;100.00;140779.06;107634;1261;22539;-62
2024/01/25 21:41:22;;;;;;;5.90;3.30;;;;;;;-6.19;100.00;140775.34;107518;1260;22536;-64
2024/01/25 21:44:12;;;;;;;5.60;3.10;;;;;;;-6.19;100.00;140775.59;107850;1256;24465;-63
2024/01/25 21:46:59;;;;;;;7.10;3.20;;;;;;;-6.29;100.00;140751.38;107773;1266;22523;-59
2024/01/25 21:49:48;;;;;;;4.60;2.60;;;;;;;-6.36;100.00;140735.81;107931;1259;22513;-56
2024/01/25 21:52:35;;;;;;;5.50;3.00;;;;;;;-6.37;100.00;140732.61;107611;1260;23280;-63
2024/01/25 21:55:22;;;;;;;7.10;3.40;;;;;;;-6.39;100.00;140727.17;107731;1266;24247;-64
2024/01/25 21:58:08;;;;;;;4.90;2.80;;;;;;;-6.45;100.00;140712.58;107710;1259;22517;-64
2024/01/25 22:00:55;;;;;;;5.50;3.00;;;;;;;-6.48;100.00;140705.67;107648;1251;24235;-63
2024/01/25 22:03:42;;;;;;;4.60;2.80;;;;;;;-6.49;100.00;140704.42;107775;1259;26478;-65
2024/01/25 22:06:28;;;;;;;5.00;2.90;;;;;;;-6.52;100.00;140696.77;107973;1251;23231;-58
2024/01/25 22:09:15;;;;;;;6.70;2.60;;;;;;;-6.51;100.00;140698.75;107522;1256;22535;-60
2024/01/25 22:12:02;;;;;;;3.80;2.30;;;;;;;-6.65;100.00;140664.16;107618;1266;25373;-62
2024/01/25 22:14:48;;;;;;;6.90;2.60;;;;;;;-6.81;100.00;140627.11;107722;1265;25284;-58
2024/01/25 22:17:35;;;;;;;5.20;2.30;;;;;;;-6.89;100.00;140607.83;107917;1262;23505;-62
2024/01/25 22:20:22;;;;;;;4.20;2.40;;;;;;;-6.93;100.00;140596.72;107730;1264;22547;-62
2024/01/25 22:23:08;;;;;;;4.60;2.40;;;;;;;-6.94;100.00;140593.53;107980;1272;22973;-63
2024/01/25 22:25:55;;;;;;;4.70;2.30;;;;;;;-6.95;100.00;140591.31;107814;1262;22523;-63
2024/01/25 22:28:41;;;;;;;5.00;2.60;;;;;;;-7.00;100.00;140581.16;107203;1268;25385;-63
2024/01/25 22:31:27;;;;;;;5.90;2.40;;;;;;;-7.01;100.00;140578.45;107094;1267;22529;-65
2024/01/25 22:34:13;;;;;;;4.20;2.10;;;;;;;-7.03;100.00;140573.25;107049;1274;25362;-64
2024/01/25 22:37:00;;;;;;;4.30;2.30;;;;;;;-7.06;100.00;140566.34;110548;1267;22207;-60
2024/01/25 22:39:46;;;;;;;4.10;2.60;;;;;;;-7.10;100.00;140555.22;110572;1257;22871;-63
2024/01/25 22:42:32;;;;;;;4.70;2.50;;;;;;;-7.12;100.00;140550.28;110530;1252;23052;-64
2024/01/25 22:45:21;;;;;;;4.70;2.00;;;;;;;-7.14;100.00;140546.59;110521;1273;22312;-60
2024/01/25 22:48:07;;;;;;;4.90;1.90;;;;;;;-7.13;100.00;140548.56;110604;1253;22338;-61
2024/01/25 22:50:54;;;;;;;4.90;2.60;;;;;;;-7.07;100.00;140563.13;110531;1273;23028;-64
2024/01/25 22:53:40;;;;;;;4.40;2.00;;;;;;;-7.01;100.00;140577.20;110561;1270;22172;-62
2024/01/25 22:56:27;;;;;;;3.80;2.20;;;;;;;-7.03;100.00;140572.28;110517;1272;22122;-62
2024/01/25 22:59:14;;;;;;;4.60;2.20;;;;;;;-7.06;100.00;140564.86;110514;1273;22122;-63
2024/01/25 23:02:00;;;;;;;5.30;2.50;;;;;;;-7.05;100.00;140568.81;110545;1272;22116;-63
2024/01/25 23:04:47;;;;;;;4.20;2.00;;;;;;;-7.00;100.00;140581.16;110569;1268;22144;-63
2024/01/25 23:07:32;;;;;;;5.60;2.30;;;;;;;-6.96;100.00;140589.83;110529;1273;22227;-62
2024/01/25 23:10:19;;;;;;;3.70;2.00;;;;;;;-6.99;100.00;140581.66;110641;1273;22117;-64
2024/01/25 23:13:05;;;;;;;3.90;1.90;;;;;;;-7.07;100.00;140563.63;110516;1260;22997;-59
2024/01/25 23:15:53;;;;;;;4.40;2.30;;;;;;;-7.10;100.00;140556.47;110675;1267;22345;-59
2024/01/25 23:18:39;;;;;;;5.70;2.10;;;;;;;-7.14;100.00;140546.59;110529;1267;22178;-66
2024/01/25 23:21:25;;;;;;;5.50;2.60;;;;;;;-7.16;100.00;140541.66;110531;1273;22167;-61
2024/01/25 23:24:12;;;;;;;5.90;2.50;;;;;;;-7.18;100.00;140536.47;110617;1273;22372;-64
2024/01/25 23:26:58;;;;;;;5.50;2.70;;;;;;;-7.16;100.00;140540.67;110577;1273;22391;-61
2024/01/25 23:29:44;;;;;;;4.10;2.00;;;;;;;-7.14;100.00;140546.11;110564;1268;22544;-62
2024/01/25 23:32:30;;;;;;;4.30;2.20;;;;;;;-7.11;100.00;140554.75;110524;1273;22121;-65
2024/01/25 23:35:17;;;;;;;4.50;2.10;;;;;;;-7.18;100.00;140536.47;110681;1263;22793;-60
2024/01/25 23:38:03;;;;;;;3.30;1.80;;;;;;;-7.23;100.00;140526.33;110662;1267;22376;-59
2024/01/25 23:40:49;;;;;;;3.90;1.90;;;;;;;-7.22;100.00;140527.08;110540;1267;22330;-65
2024/01/25 23:43:37;;;;;;;3.90;2.10;;;;;;;-7.21;100.00;140530.30;110520;1267;22332;-64
2024/01/25 23:46:24;;;;;;;4.10;2.00;;;;;;;-7.20;100.00;140531.53;110535;1272;22956;-61
2024/01/25 23:49:12;;;;;;;2.60;1.60;;;;;;;-7.18;100.00;140536.70;110626;1267;22304;-59
2024/01/25 23:51:59;;;;;;;4.50;1.90;;;;;;;-7.15;100.00;140544.61;110586;1267;22188;-59
2024/01/25 23:54:46;;;;;;;4.50;2.00;;;;;;;-7.11;100.00;140553.27;110569;1273;22133;-63
2024/01/25 23:57:32;;;;;;;4.80;2.40;;;;;;;-7.13;100.00;140548.08;110547;1270;22314;-59
